Time;durP1;ratioP1;P1;durP2;ratioP2;P2;SDS_P1;SDS_P2;PMS_P1;PMS_P2;Temp;Humidity;BMP_temperature;BMP_pressure;BME280_temperature;BME280_humidity;BME280_pressure;Samples;Min_cycle;Max_cycle;Signal;HPM_P1;HPM_P2
2022/02/18 00:00:32;;;;;;;13.50;2.75;;;7.70;90.70;;;;;;5100841;28;20291;-83
2022/02/18 00:02:59;;;;;;;11.82;3.33;;;7.60;94.80;;;;;;5090492;28;20560;-83
2022/02/18 00:05:26;;;;;;;10.65;3.38;;;7.50;88.20;;;;;;5091665;28;20607;-83
2022/02/18 00:07:53;;;;;;;8.35;3.28;;;7.70;97.40;;;;;;5109631;28;20226;-83
2022/02/18 00:10:20;;;;;;;12.82;2.40;;;7.60;87.40;;;;;;5095353;28;20282;-83
2022/02/18 00:12:48;;;;;;;13.07;3.03;;;7.90;88.30;;;;;;5105149;28;20198;-83
2022/02/18 00:15:17;;;;;;;12.77;2.88;;;7.50;96.40;;;;;;5109660;27;20225;-84
2022/02/18 00:17:44;;;;;;;9.68;3.80;;;7.70;96.70;;;;;;5102141;28;20282;-83
2022/02/18 00:20:12;;;;;;;15.60;4.18;;;7.60;95.50;;;;;;5099929;28;20195;-83
2022/02/18 00:22:38;;;;;;;10.27;3.50;;;7.50;87.20;;;;;;5091617;28;20194;-83
2022/02/18 00:25:08;;;;;;;9.98;4.30;;;7.50;86.80;;;;;;5092970;28;20217;-83
2022/02/18 00:27:35;;;;;;;9.15;3.25;;;7.50;86.80;;;;;;5102474;28;20237;-83
2022/02/18 00:30:09;;;;;;;10.38;3.30;;;7.50;98.20;;;;;;5102968;28;20221;-82
2022/02/18 00:32:37;;;;;;;6.88;3.38;;;7.50;93.40;;;;;;5107787;28;20280;-83
2022/02/18 00:35:04;;;;;;;9.68;3.85;;;8.30;94.40;;;;;;5092859;28;20218;-83
2022/02/18 00:37:31;;;;;;;8.65;4.32;;;7.60;86.20;;;;;;5089246;28;20209;-83
2022/02/18 00:39:59;;;;;;;12.63;2.75;;;;;;;;;;5090048;28;20248;-82
2022/02/18 00:42:27;;;;;;;14.85;3.65;;;7.50;97.20;;;;;;5090341;28;20207;-83
2022/02/18 00:44:54;;;;;;;7.30;3.30;;;7.70;86.50;;;;;;5104531;28;20242;-83
2022/02/18 00:47:22;;;;;;;6.18;2.85;;;7.50;97.10;;;;;;5100011;28;20223;-83
2022/02/18 00:49:49;;;;;;;8.18;3.38;;;7.80;86.20;;;;;;5108699;28;20198;-83
2022/02/18 00:52:17;;;;;;;5.55;2.92;;;7.80;93.00;;;;;;5089824;28;20217;-83
2022/02/18 00:54:44;;;;;;;20.90;3.13;;;7.70;85.80;;;;;;5102312;28;20217;-84
2022/02/18 00:57:11;;;;;;;15.27;3.05;;;7.40;96.40;;;;;;5093945;27;20203;-83
2022/02/18 00:59:38;;;;;;;12.70;3.35;;;7.80;86.00;;;;;;5100811;28;20205;-83
2022/02/18 01:02:05;;;;;;;7.60;3.30;;;8.40;90.30;;;;;;5100594;28;20195;-83
2022/02/18 01:04:33;;;;;;;5.88;2.70;;;7.80;85.40;;;;;;5097496;28;20205;-83
2022/02/18 01:07:01;;;;;;;7.57;2.28;;;7.60;94.80;;;;;;5100061;27;20220;-83
2022/02/18 01:09:29;;;;;;;7.53;2.80;;;7.80;96.50;;;;;;5094525;28;20668;-83
2022/02/18 01:11:58;;;;;;;9.52;3.58;;;7.70;93.70;;;;;;5086254;28;20234;-83
2022/02/18 01:14:26;;;;;;;8.15;2.90;;;7.80;97.10;;;;;;5109016;28;20641;-83
2022/02/18 01:16:54;;;;;;;11.73;3.53;;;;;;;;;;5102882;28;20203;-83
2022/02/18 01:19:22;;;;;;;10.15;3.00;;;7.70;86.40;;;;;;5089201;28;20208;-83
2022/02/18 01:21:51;;;;;;;8.10;3.45;;;7.70;87.10;;;;;;5099648;28;20799;-83
2022/02/18 01:24:19;;;;;;;10.90;2.90;;;7.60;93.60;;;;;;5101728;28;20191;-83
2022/02/18 01:26:47;;;;;;;14.40;3.42;;;7.70;94.00;;;;;;5095190;28;20202;-83
2022/02/18 01:29:15;;;;;;;11.55;2.53;;;7.80;98.10;;;;;;5107618;28;20226;-83
2022/02/18 01:31:42;;;;;;;7.57;2.67;;;7.70;88.40;;;;;;5092322;28;20665;-83
2022/02/18 01:34:13;;;;;;;7.65;2.80;;;7.70;88.40;;;;;;5107321;28;20702;-83
2022/02/18 01:36:40;;;;;;;10.63;3.10;;;7.70;98.60;;;;;;5106483;28;20208;-83
2022/02/18 01:39:10;;;;;;;5.50;3.00;;;7.60;89.00;;;;;;5093722;28;20622;-83
2022/02/18 01:41:37;;;;;;;8.03;2.70;;;7.60;89.00;;;;;;5104640;28;20628;-83
2022/02/18 01:44:05;;;;;;;7.70;2.77;;;7.60;90.00;;;;;;5105784;28;20605;-82
2022/02/18 01:46:32;;;;;;;14.80;3.07;;;7.50;88.70;;;;;;5091477;28;20633;-83
2022/02/18 01:49:00;;;;;;;10.48;2.38;;;7.40;93.80;;;;;;5088409;28;20648;-83
2022/02/18 01:51:27;;;;;;;6.57;2.47;;;7.60;88.30;;;;;;5102337;28;20681;-83
2022/02/18 01:53:55;;;;;;;8.85;2.80;;;7.60;88.00;;;;;;5102175;28;20186;-83
2022/02/18 01:56:23;;;;;;;17.85;4.13;;;7.60;88.50;;;;;;5088151;28;20209;-83
2022/02/18 01:58:50;;;;;;;5.77;2.30;;;7.60;89.10;;;;;;5101484;28;20255;-83
2022/02/18 02:01:18;;;;;;;12.02;3.25;;;;;;;;;;5094137;28;20704;-83
2022/02/18 02:03:45;;;;;;;5.18;2.50;;;7.30;97.70;;;;;;5099388;28;20229;-83
2022/02/18 02:06:14;;;;;;;14.60;3.77;;;7.50;89.10;;;;;;5102039;28;20777;-83
2022/02/18 02:08:41;;;;;;;10.82;2.38;;;7.60;96.50;;;;;;5103605;28;20643;-83
2022/02/18 02:11:09;;;;;;;7.07;2.50;;;7.30;95.80;;;;;;5105591;28;20229;-83
2022/02/18 02:13:40;;;;;;;9.00;3.25;;;7.80;90.10;;;;;;5102696;28;20195;-83
2022/02/18 02:16:08;;;;;;;12.63;3.63;;;7.60;98.70;;;;;;5088688;28;20194;-82
2022/02/18 02:18:35;;;;;;;4.18;1.85;;;7.50;89.80;;;;;;5092564;28;20217;-83
2022/02/18 02:21:03;;;;;;;7.97;2.53;;;7.50;99.30;;;;;;5108427;28;20201;-83
2022/02/18 02:23:33;;;;;;;8.80;2.25;;;7.80;95.30;;;;;;5106767;28;20190;-83
2022/02/18 02:26:01;;;;;;;10.48;2.55;;;7.40;90.20;;;;;;5107288;28;20231;-83
2022/02/18 02:28:28;;;;;;;19.57;3.70;;;7.50;93.70;;;;;;5093941;28;20236;-83
2022/02/18 02:30:56;;;;;;;5.10;2.20;;;7.40;90.10;;;;;;5099689;28;20625;-83
2022/02/18 02:33:24;;;;;;;9.35;2.08;;;7.40;90.10;;;;;;5097658;28;20639;-83
2022/02/18 02:35:52;;;;;;;5.77;1.90;;;7.40;90.10;;;;;;5100276;28;20900;-83
2022/02/18 02:38:19;;;;;;;11.35;2.33;;;7.50;90.10;;;;;;5095806;28;20716;-83
2022/02/18 02:40:48;;;;;;;11.45;3.15;;;7.40;90.10;;;;;;5097206;28;20215;-84
2022/02/18 02:43:15;;;;;;;7.97;2.92;;;7.50;90.30;;;;;;5087615;28;20308;-83
2022/02/18 02:45:43;;;;;;;15.65;3.53;;;7.60;90.70;;;;;;5098261;28;20194;-83
2022/02/18 02:48:10;;;;;;;10.93;3.00;;;7.50;90.30;;;;;;5102462;28;20282;-83
2022/02/18 02:50:37;;;;;;;9.65;3.40;;;7.40;90.30;;;;;;5106832;28;20214;-83
2022/02/18 02:53:04;;;;;;;9.00;2.90;;;7.50;90.30;;;;;;5101092;28;20281;-83
2022/02/18 02:55:31;;;;;;;6.60;2.45;;;7.20;98.50;;;;;;5093201;28;20732;-83
2022/02/18 02:57:59;;;;;;;6.50;3.13;;;7.50;90.70;;;;;;5107890;28;20294;-83
2022/02/18 03:00:26;;;;;;;9.35;2.90;;;7.30;90.80;;;;;;5099762;28;20190;-83
2022/02/18 03:02:53;;;;;;;13.70;3.20;;;7.30;90.90;;;;;;5084316;28;20824;-83
2022/02/18 03:05:20;;;;;;;10.82;3.03;;;7.40;90.70;;;;;;5087865;28;20227;-83
2022/02/18 03:07:47;;;;;;;7.88;2.60;;;7.40;90.90;;;;;;5106805;28;20672;-83
2022/02/18 03:10:14;;;;;;;9.98;3.05;;;7.50;95.40;;;;;;5091523;28;20303;-83
2022/02/18 03:12:41;;;;;;;14.27;3.63;;;7.20;90.90;;;;;;5096395;28;20742;-83
2022/02/18 03:15:10;;;;;;;8.85;2.80;;;7.20;91.10;;;;;;5090863;28;20748;-83
2022/02/18 03:17:37;;;;;;;10.50;3.10;;;7.40;95.40;;;;;;5091447;28;20263;-83
2022/02/18 03:20:06;;;;;;;5.68;3.30;;;7.20;91.10;;;;;;5093429;28;20239;-83
2022/02/18 03:22:33;;;;;;;9.48;2.80;;;7.30;91.20;;;;;;5108288;28;20198;-83
2022/02/18 03:25:00;;;;;;;7.60;2.83;;;7.20;99.50;;;;;;5092060;28;20201;-83
2022/02/18 03:27:27;;;;;;;7.70;2.85;;;;;;;;;;5105486;28;20241;-83
2022/02/18 03:29:55;;;;;;;7.85;3.03;;;7.30;91.00;;;;;;5090155;28;20222;-82
2022/02/18 03:32:23;;;;;;;8.38;2.60;;;7.30;91.40;;;;;;5089565;28;20218;-83
2022/02/18 03:34:50;;;;;;;10.27;3.47;;;7.30;91.50;;;;;;5087503;28;20203;-83
2022/02/18 03:37:17;;;;;;;8.90;3.08;;;7.40;99.90;;;;;;5091127;28;20203;-83
2022/02/18 03:39:43;;;;;;;6.97;2.65;;;7.30;91.60;;;;;;5088441;28;20203;-83
2022/02/18 03:42:11;;;;;;;5.50;2.45;;;7.30;91.30;;;;;;5104963;28;20225;-83
2022/02/18 03:44:38;;;;;;;8.60;2.88;;;7.30;91.40;;;;;;5095811;28;20575;-83
2022/02/18 03:47:05;;;;;;;4.78;2.35;;;7.40;91.50;;;;;;5100171;28;20251;-83
2022/02/18 03:49:33;;;;;;;7.72;2.35;;;7.40;91.60;;;;;;5097152;28;20221;-83
2022/02/18 03:52:00;;;;;;;13.13;3.38;;;7.60;99.90;;;;;;5092812;28;20263;-83
2022/02/18 03:54:27;;;;;;;5.22;2.88;;;7.30;99.70;;;;;;5090591;28;20251;-83
2022/02/18 03:56:55;;;;;;;4.50;2.70;;;7.40;91.30;;;;;;5091854;28;20690;-83
2022/02/18 03:59:22;;;;;;;11.68;2.65;;;7.40;91.40;;;;;;5098139;28;20273;-83
2022/02/18 04:01:49;;;;;;;5.10;2.15;;;7.70;91.90;;;;;;5107329;28;20202;-83
2022/02/18 04:04:16;;;;;;;13.95;3.20;;;7.20;91.90;;;;;;5093931;28;20194;-84
2022/02/18 04:06:44;;;;;;;8.57;2.35;;;7.10;99.90;;;;;;5092863;28;20230;-83
2022/02/18 04:09:11;;;;;;;9.02;2.80;;;7.20;92.10;;;;;;5104678;28;20229;-83
2022/02/18 04:11:38;;;;;;;8.98;2.45;;;7.30;99.40;;;;;;5094037;28;20229;-83
2022/02/18 04:14:05;;;;;;;4.20;2.42;;;7.30;91.90;;;;;;5111097;28;20190;-84
2022/02/18 04:16:32;;;;;;;6.05;3.20;;;7.10;96.00;;;;;;5108701;28;20294;-83
2022/02/18 04:18:59;;;;;;;7.25;2.25;;;7.10;96.10;;;;;;5110565;28;20312;-83
2022/02/18 04:21:26;;;;;;;9.05;2.15;;;7.20;92.50;;;;;;5097649;27;20222;-83
2022/02/18 04:23:54;;;;;;;10.10;2.97;;;7.20;92.40;;;;;;5102488;28;20194;-83
2022/02/18 04:26:21;;;;;;;3.35;2.17;;;7.20;92.20;;;;;;5096436;28;20317;-83
2022/02/18 04:28:48;;;;;;;11.40;3.08;;;7.20;92.50;;;;;;5090411;28;20219;-83
2022/02/18 04:31:15;;;;;;;9.63;2.75;;;7.20;92.50;;;;;;5090148;28;20223;-83
2022/02/18 04:33:42;;;;;;;8.18;3.10;;;7.20;92.40;;;;;;5103268;28;20202;-83
2022/02/18 04:36:11;;;;;;;7.85;2.35;;;7.00;97.00;;;;;;5108719;28;20194;-83
2022/02/18 04:38:38;;;;;;;7.65;2.38;;;8.10;93.20;;;;;;5099368;28;20190;-83
2022/02/18 04:41:06;;;;;;;8.63;2.40;;;7.20;99.90;;;;;;5105629;28;20700;-83
2022/02/18 04:43:33;;;;;;;5.70;2.30;;;7.30;92.90;;;;;;5108338;28;20883;-82
2022/02/18 04:46:00;;;;;;;9.93;2.58;;;7.10;97.20;;;;;;5096081;28;20267;-83
2022/02/18 04:48:27;;;;;;;11.35;2.70;;;7.30;92.90;;;;;;5100979;28;20195;-83
2022/02/18 04:50:54;;;;;;;7.93;1.95;;;7.50;99.90;;;;;;5097834;28;20320;-83
2022/02/18 04:53:21;;;;;;;7.43;2.45;;;7.00;99.90;;;;;;5107457;28;20190;-82
2022/02/18 04:55:48;;;;;;;6.88;3.28;;;7.30;93.10;;;;;;5102917;28;20195;-82
2022/02/18 04:58:16;;;;;;;7.45;3.05;;;7.30;93.10;;;;;;5094012;28;20222;-83
2022/02/18 05:00:43;;;;;;;10.98;3.50;;;7.10;94.60;;;;;;5102395;28;20202;-83
2022/02/18 05:03:10;;;;;;;4.33;2.07;;;7.60;99.90;;;;;;5097125;28;20199;-83
2022/02/18 05:05:37;;;;;;;5.38;2.22;;;7.30;93.10;;;;;;5096339;28;20625;-83
2022/02/18 05:08:04;;;;;;;4.90;2.95;;;8.00;99.90;;;;;;5089852;28;20285;-83
2022/02/18 05:10:31;;;;;;;7.35;3.33;;;7.30;93.20;;;;;;5090667;28;20222;-83
2022/02/18 05:12:58;;;;;;;9.23;2.90;;;7.30;93.20;;;;;;5100370;28;20190;-82
2022/02/18 05:15:26;;;;;;;10.00;3.17;;;7.30;93.90;;;;;;5108955;28;20269;-82
2022/02/18 05:17:53;;;;;;;5.28;3.28;;;7.30;94.00;;;;;;5090570;28;20230;-83
2022/02/18 05:20:20;;;;;;;9.77;2.88;;;7.40;93.40;;;;;;5096212;28;20226;-83
2022/02/18 05:22:47;;;;;;;15.00;4.70;;;7.50;93.50;;;;;;5108079;27;20243;-82
2022/02/18 05:25:13;;;;;;;12.17;3.03;;;7.30;99.90;;;;;;5094265;27;20312;-82
2022/02/18 05:27:40;;;;;;;5.05;2.60;;;7.30;97.30;;;;;;5108874;28;21347;-83
2022/02/18 05:30:10;;;;;;;10.00;2.90;;;7.50;93.20;;;;;;5096308;28;20702;-82
2022/02/18 05:32:38;;;;;;;6.40;2.17;;;7.50;93.20;;;;;;5096148;28;20221;-82
2022/02/18 05:35:05;;;;;;;6.82;2.35;;;7.40;93.20;;;;;;5104142;28;20195;-83
2022/02/18 05:37:32;;;;;;;7.88;2.78;;;7.50;93.20;;;;;;5089193;28;20207;-82
2022/02/18 05:39:59;;;;;;;6.47;2.38;;;7.50;93.20;;;;;;5100522;28;20218;-83
2022/02/18 05:42:26;;;;;;;9.27;2.95;;;7.60;96.90;;;;;;5089579;28;20268;-83
2022/02/18 05:44:53;;;;;;;12.02;2.40;;;7.50;93.00;;;;;;5088883;28;20741;-83
2022/02/18 05:47:20;;;;;;;7.70;2.53;;;7.30;99.90;;;;;;5108117;28;20225;-83
2022/02/18 05:49:49;;;;;;;13.00;3.50;;;7.30;99.90;;;;;;5107178;28;20218;-83
2022/02/18 05:52:16;;;;;;;10.30;3.72;;;7.50;99.90;;;;;;5103628;28;20849;-83
2022/02/18 05:54:43;;;;;;;7.30;3.28;;;7.40;99.90;;;;;;5097395;28;20233;-83
2022/02/18 05:57:10;;;;;;;5.97;2.45;;;7.50;93.00;;;;;;5108797;28;20201;-83
2022/02/18 05:59:36;;;;;;;3.33;2.10;;;7.30;99.90;;;;;;5093072;28;20256;-83
2022/02/18 06:02:04;;;;;;;4.65;2.30;;;7.50;99.90;;;;;;5089492;28;20206;-83
2022/02/18 06:04:31;;;;;;;10.60;2.33;;;7.30;97.30;;;;;;5088692;28;20290;-82
2022/02/18 06:06:59;;;;;;;15.13;3.58;;;7.50;92.90;;;;;;5078796;28;20227;-82
2022/02/18 06:09:26;;;;;;;8.68;3.75;;;7.80;98.10;;;;;;5089044;28;20245;-83
2022/02/18 06:11:53;;;;;;;4.90;3.10;;;7.40;99.90;;;;;;5088018;28;20194;-83
2022/02/18 06:14:20;;;;;;;7.28;2.45;;;7.10;99.90;;;;;;5095327;28;20650;-82
2022/02/18 06:16:47;;;;;;;6.70;2.70;;;7.50;93.00;;;;;;5103855;28;20277;-82
2022/02/18 06:19:13;;;;;;;6.93;2.67;;;7.60;93.00;;;;;;5093713;28;20267;-82
2022/02/18 06:21:41;;;;;;;7.28;2.75;;;7.60;92.80;;;;;;5108322;28;20251;-82
2022/02/18 06:24:09;;;;;;;5.05;2.60;;;7.30;98.10;;;;;;5094706;28;20199;-82
2022/02/18 06:26:36;;;;;;;7.50;2.65;;;7.50;92.70;;;;;;5092237;28;20235;-82
2022/02/18 06:29:04;;;;;;;11.35;2.92;;;7.80;99.90;;;;;;5094763;27;20222;-83
2022/02/18 06:31:31;;;;;;;8.55;3.60;;;7.60;98.20;;;;;;5105355;27;20237;-82
2022/02/18 06:33:58;;;;;;;7.30;2.72;;;7.50;92.70;;;;;;5087737;28;20293;-82
2022/02/18 06:36:25;;;;;;;15.52;3.10;;;;;;;;;;5098733;28;20252;-82
2022/02/18 06:38:52;;;;;;;3.60;2.37;;;7.90;98.00;;;;;;5094648;28;20203;-82
2022/02/18 06:41:21;;;;;;;12.52;3.03;;;7.70;92.40;;;;;;5087563;28;21202;-83
2022/02/18 06:43:48;;;;;;;10.90;4.93;;;7.80;98.40;;;;;;5093250;28;20266;-83
2022/02/18 06:46:15;;;;;;;5.75;3.33;;;7.60;92.90;;;;;;5090932;28;20605;-82
2022/02/18 06:48:42;;;;;;;17.03;3.87;;;;;;;;;;5107678;28;20536;-82
2022/02/18 06:51:09;;;;;;;11.93;3.60;;;7.50;98.00;;;;;;5082554;28;20676;-83
2022/02/18 06:53:37;;;;;;;7.75;3.30;;;7.90;99.90;;;;;;5093478;28;20656;-83
2022/02/18 06:56:05;;;;;;;8.05;3.08;;;7.70;92.50;;;;;;5082384;28;20195;-83
2022/02/18 06:58:34;;;;;;;10.47;3.17;;;7.70;98.60;;;;;;5091856;28;20282;-83
2022/02/18 07:01:01;;;;;;;11.43;3.37;;;8.40;99.90;;;;;;5087050;28;20632;-82
2022/02/18 07:03:28;;;;;;;14.13;3.10;;;7.70;99.40;;;;;;5088555;28;20653;-83
2022/02/18 07:05:55;;;;;;;10.18;3.50;;;7.90;99.90;;;;;;5090859;28;20194;-82
2022/02/18 07:08:23;;;;;;;6.45;2.78;;;7.80;99.90;;;;;;5102601;28;20286;-83
2022/02/18 07:10:49;;;;;;;5.87;2.60;;;7.70;99.90;;;;;;5087343;28;20284;-83
2022/02/18 07:13:16;;;;;;;6.20;3.40;;;7.80;93.30;;;;;;5099166;28;20723;-83
2022/02/18 07:15:45;;;;;;;10.57;2.60;;;7.90;93.20;;;;;;5100471;28;20686;-83
2022/02/18 07:18:12;;;;;;;5.33;2.57;;;7.80;99.90;;;;;;5085952;28;20211;-83
2022/02/18 07:20:39;;;;;;;5.85;2.90;;;8.80;98.80;;;;;;5087215;28;20598;-82
2022/02/18 07:23:07;;;;;;;7.88;2.33;;;7.90;93.30;;;;;;5091573;28;20255;-83
2022/02/18 07:25:35;;;;;;;5.93;2.30;;;;;;;;;;5102007;28;20226;-83
2022/02/18 07:28:02;;;;;;;9.43;3.47;;;7.90;93.00;;;;;;5085651;28;21117;-83
2022/02/18 07:30:29;;;;;;;7.10;2.10;;;8.00;93.30;;;;;;5086205;28;20658;-83
2022/02/18 07:32:57;;;;;;;6.03;2.38;;;7.90;99.90;;;;;;5067460;28;21183;-82
2022/02/18 07:35:32;;;;;;;4.20;2.00;;;8.10;93.40;;;;;;5085976;28;20206;-83
2022/02/18 07:38:00;;;;;;;4.13;1.90;;;8.20;99.90;;;;;;5066040;28;21330;-83
2022/02/18 07:40:27;;;;;;;3.70;2.10;;;8.00;99.90;;;;;;5077965;28;20721;-83
2022/02/18 07:42:54;;;;;;;5.67;2.47;;;8.20;99.50;;;;;;5089916;28;21077;-82
2022/02/18 07:45:21;;;;;;;7.00;2.30;;;8.30;98.90;;;;;;5081495;28;20736;-83
2022/02/18 07:47:53;;;;;;;3.90;1.47;;;8.30;93.70;;;;;;5088377;28;20620;-83
2022/02/18 07:50:21;;;;;;;4.63;1.80;;;8.30;93.90;;;;;;5084706;28;20688;-83
2022/02/18 07:52:48;;;;;;;6.93;2.30;;;;;;;;;;5087532;28;21062;-82
2022/02/18 07:55:16;;;;;;;2.95;1.60;;;;;;;;;;5088574;28;20627;-82
2022/02/18 07:57:43;;;;;;;5.63;1.40;;;8.40;96.00;;;;;;5078249;28;20209;-82
2022/02/18 08:00:11;;;;;;;7.07;2.53;;;8.70;99.90;;;;;;5073194;28;20299;-82
2022/02/18 08:02:38;;;;;;;6.50;2.70;;;8.60;99.90;;;;;;5073925;28;20686;-83
2022/02/18 08:05:05;;;;;;;5.45;2.00;;;8.80;99.90;;;;;;5071630;28;20796;-83
2022/02/18 08:07:34;;;;;;;2.90;2.10;;;8.60;94.70;;;;;;5089804;28;20202;-82
2022/02/18 08:10:01;;;;;;;2.87;1.80;;;;;;;;;;5070241;28;20230;-82
2022/02/18 08:12:28;;;;;;;4.43;2.17;;;8.80;99.90;;;;;;5084929;28;20747;-82
2022/02/18 08:14:55;;;;;;;4.10;2.30;;;;;;;;;;5090537;28;20658;-83
2022/02/18 08:17:22;;;;;;;3.70;1.27;;;8.80;99.90;;;;;;5079113;28;20622;-83
2022/02/18 08:19:49;;;;;;;6.00;2.70;;;9.00;99.90;;;;;;5110744;28;20617;-83
2022/02/18 08:22:17;;;;;;;2.50;1.33;;;8.90;95.20;;;;;;5108748;28;20645;-82
2022/02/18 08:24:45;;;;;;;1.50;1.40;;;8.50;99.90;;;;;;5095727;28;20640;-83
2022/02/18 08:27:12;;;;;;;5.00;1.80;;;9.00;99.90;;;;;;5090596;28;20742;-83
2022/02/18 08:29:39;;;;;;;3.23;1.80;;;9.10;95.40;;;;;;5090018;28;20657;-83
2022/02/18 08:32:07;;;;;;;5.83;2.30;;;9.50;99.90;;;;;;5089190;28;20655;-83
2022/02/18 08:34:34;;;;;;;1.73;1.00;;;9.30;95.30;;;;;;5094042;28;20684;-82
2022/02/18 08:37:02;;;;;;;3.20;1.43;;;9.90;99.90;;;;;;5098570;28;21211;-83
2022/02/18 08:39:29;;;;;;;1.80;1.20;;;9.70;99.90;;;;;;5069036;28;20663;-83
2022/02/18 08:41:57;;;;;;;4.27;1.47;;;9.70;95.50;;;;;;5089268;28;20657;-83
2022/02/18 08:44:24;;;;;;;4.80;1.20;;;9.30;96.50;;;;;;5098396;28;20630;-83
2022/02/18 08:46:51;;;;;;;3.57;1.50;;;;;;;;;;5096875;28;20650;-83
2022/02/18 08:49:18;;;;;;;3.23;1.70;;;9.80;95.40;;;;;;5094272;28;20795;-83
2022/02/18 08:51:45;;;;;;;2.13;1.40;;;;;;;;;;5088591;28;20663;-82
2022/02/18 08:54:13;;;;;;;3.63;1.20;;;10.10;99.90;;;;;;5100924;28;20742;-83
2022/02/18 08:56:40;;;;;;;3.83;1.83;;;10.00;95.60;;;;;;5093846;28;21193;-83
2022/02/18 08:59:08;;;;;;;2.10;1.57;;;10.60;99.90;;;;;;5094648;28;20620;-83
2022/02/18 09:01:35;;;;;;;2.87;1.60;;;10.40;99.90;;;;;;5098187;28;20631;-83
2022/02/18 09:04:02;;;;;;;3.20;1.07;;;10.80;99.90;;;;;;5089228;28;20701;-83
2022/02/18 09:06:31;;;;;;;2.00;1.20;;;10.20;99.90;;;;;;5086870;28;20684;-84
2022/02/18 09:08:58;;;;;;;1.27;0.80;;;10.80;99.90;;;;;;5088595;28;21415;-83
2022/02/18 09:11:25;;;;;;;2.07;1.00;;;10.40;99.90;;;;;;5089529;28;20660;-83
2022/02/18 09:13:52;;;;;;;2.57;1.47;;;10.50;94.90;;;;;;5088116;28;20694;-83
2022/02/18 09:16:22;;;;;;;10.83;1.27;;;10.60;95.50;;;;;;5087887;28;20997;-83
2022/02/18 09:18:49;;;;;;;1.53;1.10;;;10.80;95.20;;;;;;5088264;28;20620;-83
2022/02/18 09:21:16;;;;;;;2.20;1.10;;;11.30;99.90;;;;;;5090400;28;20619;-83
2022/02/18 09:23:43;;;;;;;1.70;1.07;;;;;;;;;;5086188;28;20620;-83
2022/02/18 09:26:10;;;;;;;0.90;0.70;;;11.40;99.90;;;;;;5088271;28;20637;-82
2022/02/18 09:28:37;;;;;;;2.33;0.90;;;11.10;95.00;;;;;;5090571;28;20621;-83
2022/02/18 09:31:04;;;;;;;1.63;0.73;;;11.10;99.90;;;;;;5086259;28;20745;-83
2022/02/18 09:33:34;;;;;;;2.53;1.00;;;11.10;99.00;;;;;;5087666;28;21501;-83
2022/02/18 09:36:01;;;;;;;2.40;1.70;;;11.50;94.80;;;;;;5088467;28;20682;-83
2022/02/18 09:38:28;;;;;;;3.90;1.30;;;11.50;94.70;;;;;;5087768;28;20616;-83
2022/02/18 09:40:55;;;;;;;2.63;1.10;;;11.70;99.90;;;;;;5087309;28;20617;-83
2022/02/18 09:43:23;;;;;;;2.10;1.07;;;11.60;94.40;;;;;;5082288;28;20652;-83
2022/02/18 09:45:50;;;;;;;0.87;0.80;;;12.10;96.70;;;;;;5087845;28;20644;-82
2022/02/18 09:48:18;;;;;;;1.80;0.60;;;12.10;99.90;;;;;;5091322;28;20624;-82
2022/02/18 09:50:47;;;;;;;2.63;0.50;;;11.80;94.60;;;;;;5087873;28;20756;-82
2022/02/18 09:53:14;;;;;;;2.00;0.63;;;12.10;94.50;;;;;;5087233;28;20756;-83
2022/02/18 09:55:41;;;;;;;1.43;1.27;;;12.10;98.80;;;;;;5088661;28;20620;-83
2022/02/18 09:58:08;;;;;;;3.23;0.93;;;12.60;99.40;;;;;;5087137;28;20745;-83
2022/02/18 10:00:38;;;;;;;3.90;1.20;;;12.40;94.20;;;;;;5088795;28;20629;-83
2022/02/18 10:03:08;;;;;;;2.23;1.03;;;12.60;99.50;;;;;;5087760;28;20630;-83
2022/02/18 10:05:35;;;;;;;8.13;1.07;;;;;;;;;;5086955;28;20604;-83
2022/02/18 10:08:13;;;;;;;1.93;0.90;;;13.00;93.50;;;;;;5084532;28;20660;-82
2022/02/18 10:10:42;;;;;;;1.07;0.80;;;13.10;93.50;;;;;;5087134;28;20660;-83
2022/02/18 10:13:28;;;;;;;1.57;0.87;;;13.70;97.80;;;;;;5086695;28;20620;-83
2022/02/18 10:15:57;;;;;;;6.50;0.80;;;13.40;99.90;;;;;;5088074;28;21495;-83
2022/02/18 10:18:26;;;;;;;2.93;1.30;;;13.40;93.20;;;;;;5086894;28;20621;-83
2022/02/18 10:20:54;;;;;;;0.93;0.70;;;13.30;97.20;;;;;;5087556;28;20628;-82
2022/02/18 10:23:26;;;;;;;3.40;1.10;;;14.30;97.60;;;;;;5088265;28;20793;-83
2022/02/18 10:25:54;;;;;;;1.80;1.40;;;14.00;98.20;;;;;;5098239;28;20740;-82
2022/02/18 10:28:22;;;;;;;1.37;1.27;;;13.90;92.40;;;;;;5087645;28;20625;-83
2022/02/18 10:31:01;;;;;;;2.80;0.80;;;14.20;94.30;;;;;;5088610;28;20684;-83
2022/02/18 10:33:28;;;;;;;2.47;1.60;;;13.90;91.90;;;;;;5087854;28;20640;-83
2022/02/18 10:36:01;;;;;;;1.30;1.00;;;14.00;96.20;;;;;;5095690;28;20719;-84
2022/02/18 10:38:34;;;;;;;1.90;0.90;;;14.20;91.30;;;;;;5097992;28;20624;-84
2022/02/18 10:41:19;;;;;;;1.03;0.93;;;14.30;91.60;;;;;;5096359;28;20675;-84
2022/02/18 10:43:47;;;;;;;1.00;0.90;;;14.30;91.90;;;;;;5078057;28;20746;-84
2022/02/18 10:46:17;;;;;;;2.37;0.90;;;14.20;91.30;;;;;;5108901;28;20612;-83
2022/02/18 10:48:49;;;;;;;2.50;0.90;;;14.30;96.50;;;;;;5105921;28;20648;-83
2022/02/18 10:51:21;;;;;;;4.60;1.80;;;14.50;91.30;;;;;;5109438;28;20659;-83
2022/02/18 10:53:51;;;;;;;2.17;0.90;;;14.80;90.90;;;;;;5102483;28;20631;-83
2022/02/18 10:56:20;;;;;;;2.33;0.80;;;14.90;90.30;;;;;;5089569;28;20622;-83
2022/02/18 10:58:49;;;;;;;3.50;0.90;;;15.10;89.70;;;;;;5098014;28;21252;-83
2022/02/18 11:01:20;;;;;;;1.80;0.97;;;15.10;95.00;;;;;;5105691;28;20694;-83
2022/02/18 11:03:49;;;;;;;0.83;0.63;;;15.30;88.30;;;;;;5096995;28;20622;-84
2022/02/18 11:06:18;;;;;;;2.17;0.90;;;15.20;89.50;;;;;;5092098;28;20635;-84
2022/02/18 11:08:57;;;;;;;0.77;0.57;;;15.40;88.70;;;;;;5105237;28;20629;-83
2022/02/18 11:11:32;;;;;;;2.00;1.17;;;15.40;87.20;;;;;;5102728;28;20704;-83
2022/02/18 11:14:00;;;;;;;2.93;0.87;;;15.60;87.60;;;;;;5100620;28;20618;-83
2022/02/18 11:16:33;;;;;;;1.13;0.93;;;15.60;86.50;;;;;;5093940;28;20629;-84
2022/02/18 11:19:01;;;;;;;0.43;0.40;;;;;;;;;;5106917;28;20662;-84
2022/02/18 11:21:29;;;;;;;2.73;0.90;;;15.60;87.00;;;;;;5095153;28;21433;-85
2022/02/18 11:24:00;;;;;;;1.57;0.70;;;15.90;91.20;;;;;;5099207;28;20642;-85
2022/02/18 11:26:29;;;;;;;0.73;0.70;;;16.00;94.90;;;;;;5083815;28;21350;-83
2022/02/18 11:28:57;;;;;;;1.13;0.60;;;15.30;93.00;;;;;;5093131;28;20631;-84
2022/02/18 11:31:27;;;;;;;4.50;0.87;;;15.30;86.10;;;;;;5096819;28;20663;-84
2022/02/18 11:34:35;;;;;;;3.30;0.93;;;15.30;85.70;;;;;;5107750;28;20659;-84
2022/02/18 11:37:50;;;;;;;3.90;1.13;;;15.10;84.50;;;;;;5112487;28;20629;-85
2022/02/18 11:40:45;;;;;;;3.63;0.90;;;15.30;92.70;;;;;;5108930;28;21366;-84
2022/02/18 11:43:27;;;;;;;1.73;0.97;;;15.30;86.30;;;;;;5092707;28;20687;-84
2022/02/18 11:45:59;;;;;;;2.13;0.77;;;15.40;91.80;;;;;;5096802;28;21199;-84
2022/02/18 11:48:43;;;;;;;2.20;0.80;;;15.30;84.30;;;;;;5096529;28;20670;-84
2022/02/18 11:51:11;;;;;;;2.10;0.83;;;15.20;94.20;;;;;;5100320;28;21081;-84
2022/02/18 11:53:40;;;;;;;6.73;0.60;;;15.40;84.80;;;;;;5093326;28;20632;-83
2022/02/18 11:56:09;;;;;;;0.77;0.77;;;15.60;90.30;;;;;;5092791;28;21138;-82
2022/02/18 11:58:52;;;;;;;2.73;1.10;;;15.60;85.20;;;;;;5094194;28;20623;-85
2022/02/18 12:01:20;;;;;;;0.90;0.80;;;;;;;;;;5102482;28;20750;-83
2022/02/18 12:04:18;;;;;;;2.20;0.97;;;15.30;91.30;;;;;;5106429;28;20642;-84
2022/02/18 12:07:23;;;;;;;4.93;1.20;;;15.60;83.30;;;;;;5091496;28;20607;-83
2022/02/18 12:10:04;;;;;;;4.40;0.90;;;15.60;83.10;;;;;;5086092;28;21286;-84
2022/02/18 12:12:33;;;;;;;2.00;0.93;;;15.70;84.00;;;;;;5113427;28;20739;-84
2022/02/18 12:15:10;;;;;;;1.00;0.80;;;15.80;81.50;;;;;;5109189;28;20652;-84
2022/02/18 12:17:39;;;;;;;1.20;0.50;;;15.70;82.10;;;;;;5106152;28;20625;-84
2022/02/18 12:20:16;;;;;;;2.60;0.70;;;15.80;82.20;;;;;;5107458;28;20632;-84
2022/02/18 12:22:43;;;;;;;1.40;0.70;;;15.90;90.30;;;;;;5092868;28;20687;-83
2022/02/18 12:25:21;;;;;;;2.10;0.90;;;15.60;81.70;;;;;;5094012;28;20620;-83
2022/02/18 12:27:50;;;;;;;0.93;0.83;;;15.50;83.10;;;;;;5091737;28;20695;-83
2022/02/18 12:30:36;;;;;;;3.23;1.30;;;15.50;82.90;;;;;;5111925;28;21393;-83
2022/02/18 12:33:03;;;;;;;1.00;0.90;;;15.40;83.10;;;;;;5091284;28;21259;-84
2022/02/18 12:35:33;;;;;;;1.37;0.80;;;15.30;83.30;;;;;;5091515;28;20619;-84
2022/02/18 12:38:04;;;;;;;1.70;1.10;;;15.30;83.90;;;;;;5108373;28;20640;-84
2022/02/18 12:40:34;;;;;;;6.80;1.07;;;15.10;89.70;;;;;;5106243;28;20631;-84
2022/02/18 12:43:05;;;;;;;1.10;0.70;;;15.40;83.40;;;;;;5092545;28;21000;-84
2022/02/18 12:45:48;;;;;;;2.00;0.83;;;15.50;83.60;;;;;;5093571;28;20640;-84
2022/02/18 12:48:16;;;;;;;7.20;1.13;;;15.30;89.20;;;;;;5091471;28;20638;-83
2022/02/18 12:50:46;;;;;;;1.10;0.80;;;15.40;84.60;;;;;;5110478;27;21186;-83
2022/02/18 12:53:18;;;;;;;5.73;0.60;;;15.40;84.00;;;;;;5097955;28;20669;-84
2022/02/18 12:55:45;;;;;;;3.63;0.70;;;15.50;90.10;;;;;;5089585;28;20608;-84
2022/02/18 12:58:15;;;;;;;0.87;0.40;;;15.80;88.20;;;;;;5100043;28;21249;-84
2022/02/18 13:00:42;;;;;;;1.23;0.73;;;15.20;82.70;;;;;;5090371;28;20628;-83
2022/02/18 13:03:11;;;;;;;2.33;0.70;;;15.20;82.50;;;;;;5098991;28;21210;-84
2022/02/18 13:05:39;;;;;;;2.33;1.20;;;15.20;82.70;;;;;;5107487;28;20623;-84